sensor_id;sensor_type;location;lat;lon;timestamp;pressure;altitude;pressure_sealevel;temperature;humidity
21824;BME280;11074;48.596;9.238;2022-11-20T00:01:15;97730.03;;;9.36;81.89
21824;BME280;11074;48.596;9.238;2022-11-20T00:03:43;97718.78;;;9.34;82.67
21824;BME280;11074;48.596;9.238;2022-11-20T00:06:15;97730.53;;;9.33;82.68
21824;BME280;11074;48.596;9.238;2022-11-20T00:08:42;97729.66;;;9.23;81.47
21824;BME280;11074;48.596;9.238;2022-11-20T00:11:14;97730.69;;;9.22;81.98
21824;BME280;11074;48.596;9.238;2022-11-20T00:13:40;97728.28;;;9.20;80.68
21824;BME280;11074;48.596;9.238;2022-11-20T00:16:09;97734.66;;;9.19;81.14
21824;BME280;11074;48.596;9.238;2022-11-20T00:18:36;97724.50;;;9.16;82.29
21824;BME280;11074;48.596;9.238;2022-11-20T00:21:23;97730.34;;;9.13;81.73
21824;BME280;11074;48.596;9.238;2022-11-20T00:23:51;97735.66;;;9.13;82.41
21824;BME280;11074;48.596;9.238;2022-11-20T00:26:19;97734.69;;;8.92;81.89
21824;BME280;11074;48.596;9.238;2022-11-20T00:28:55;97737.56;;;8.86;82.07
21824;BME280;11074;48.596;9.238;2022-11-20T00:31:21;97745.44;;;8.76;82.05
21824;BME280;11074;48.596;9.238;2022-11-20T00:33:47;97730.00;;;8.51;82.99
21824;BME280;11074;48.596;9.238;2022-11-20T00:36:20;97741.81;;;8.60;82.79
21824;BME280;11074;48.596;9.238;2022-11-20T00:38:47;97734.63;;;8.61;82.51
21824;BME280;11074;48.596;9.238;2022-11-20T00:41:15;97744.88;;;8.74;82.62
21824;BME280;11074;48.596;9.238;2022-11-20T00:43:42;97734.06;;;8.59;82.91
21824;BME280;11074;48.596;9.238;2022-11-20T00:46:13;97736.88;;;8.74;82.32
21824;BME280;11074;48.596;9.238;2022-11-20T00:48:39;97742.53;;;8.77;80.27
21824;BME280;11074;48.596;9.238;2022-11-20T00:51:06;97747.09;;;8.82;81.35
21824;BME280;11074;48.596;9.238;2022-11-20T00:53:32;97754.59;;;8.85;81.94
21824;BME280;11074;48.596;9.238;2022-11-20T00:56:04;97755.41;;;8.85;82.49
21824;BME280;11074;48.596;9.238;2022-11-20T00:58:34;97747.09;;;8.82;81.00
21824;BME280;11074;48.596;9.238;2022-11-20T01:01:24;97758.84;;;8.81;79.96
21824;BME280;11074;48.596;9.238;2022-11-20T01:03:53;97756.19;;;8.81;81.01
21824;BME280;11074;48.596;9.238;2022-11-20T01:06:26;97757.16;;;8.75;78.53
21824;BME280;11074;48.596;9.238;2022-11-20T01:08:56;97768.88;;;8.74;79.91
21824;BME280;11074;48.596;9.238;2022-11-20T01:11:32;97761.38;;;8.71;81.41
21824;BME280;11074;48.596;9.238;2022-11-20T01:14:00;97762.13;;;8.66;80.50
21824;BME280;11074;48.596;9.238;2022-11-20T01:16:30;97769.31;;;8.66;80.54
21824;BME280;11074;48.596;9.238;2022-11-20T01:19:00;97771.91;;;8.61;81.15
21824;BME280;11074;48.596;9.238;2022-11-20T01:21:39;97767.28;;;8.51;79.68
21824;BME280;11074;48.596;9.238;2022-11-20T01:24:08;97766.16;;;8.47;81.16
21824;BME280;11074;48.596;9.238;2022-11-20T01:26:38;97773.91;;;8.48;80.97
21824;BME280;11074;48.596;9.238;2022-11-20T01:29:05;97777.06;;;8.45;80.51
21824;BME280;11074;48.596;9.238;2022-11-20T01:31:36;97774.69;;;8.49;81.82
21824;BME280;11074;48.596;9.238;2022-11-20T01:34:06;97775.81;;;8.31;79.38
21824;BME280;11074;48.596;9.238;2022-11-20T01:36:33;97774.03;;;8.20;80.40
21824;BME280;11074;48.596;9.238;2022-11-20T01:39:05;97771.16;;;8.22;79.51
21824;BME280;11074;48.596;9.238;2022-11-20T01:41:33;97772.06;;;8.27;81.55
21824;BME280;11074;48.596;9.238;2022-11-20T01:44:22;97762.66;;;8.25;80.63
21824;BME280;11074;48.596;9.238;2022-11-20T01:47:04;97765.66;;;8.28;80.58
21824;BME280;11074;48.596;9.238;2022-11-20T01:49:46;97771.78;;;8.29;81.14
21824;BME280;11074;48.596;9.238;2022-11-20T01:52:41;97774.19;;;8.30;81.81
21824;BME280;11074;48.596;9.238;2022-11-20T01:55:14;97762.34;;;8.21;82.13
21824;BME280;11074;48.596;9.238;2022-11-20T01:57:44;97758.66;;;8.22;81.33
21824;BME280;11074;48.596;9.238;2022-11-20T02:00:14;97759.63;;;8.16;81.31
21824;BME280;11074;48.596;9.238;2022-11-20T02:02:46;97770.28;;;8.16;81.81
21824;BME280;11074;48.596;9.238;2022-11-20T02:05:44;97764.81;;;8.06;80.90
21824;BME280;11074;48.596;9.238;2022-11-20T02:08:12;97770.69;;;8.08;81.90
21824;BME280;11074;48.596;9.238;2022-11-20T02:10:38;97767.97;;;8.03;78.72
21824;BME280;11074;48.596;9.238;2022-11-20T02:13:04;97764.91;;;7.94;79.41
21824;BME280;11074;48.596;9.238;2022-11-20T02:15:49;97768.44;;;8.00;81.42
21824;BME280;11074;48.596;9.238;2022-11-20T02:18:17;97765.41;;;7.91;79.98
21824;BME280;11074;48.596;9.238;2022-11-20T02:20:48;97772.16;;;7.82;80.85
21824;BME280;11074;48.596;9.238;2022-11-20T02:23:36;97770.66;;;7.86;81.97
21824;BME280;11074;48.596;9.238;2022-11-20T02:26:09;97775.50;;;7.89;82.05
21824;BME280;11074;48.596;9.238;2022-11-20T02:28:36;97771.75;;;7.90;82.00
21824;BME280;11074;48.596;9.238;2022-11-20T02:31:02;97768.47;;;7.83;79.99
21824;BME280;11074;48.596;9.238;2022-11-20T02:33:28;97756.22;;;7.82;80.65
21824;BME280;11074;48.596;9.238;2022-11-20T02:35:53;97762.13;;;7.84;80.75
21824;BME280;11074;48.596;9.238;2022-11-20T02:38:19;97760.97;;;7.80;81.92
21824;BME280;11074;48.596;9.238;2022-11-20T02:40:45;97765.66;;;7.73;81.99
21824;BME280;11074;48.596;9.238;2022-11-20T02:43:11;97757.69;;;7.73;82.17
21824;BME280;11074;48.596;9.238;2022-11-20T02:45:37;97767.03;;;7.76;81.68
21824;BME280;11074;48.596;9.238;2022-11-20T02:48:05;97762.03;;;7.79;81.52
21824;BME280;11074;48.596;9.238;2022-11-20T02:50:31;97759.13;;;7.81;80.16
21824;BME280;11074;48.596;9.238;2022-11-20T02:52:56;97757.50;;;7.80;80.68
21824;BME280;11074;48.596;9.238;2022-11-20T02:55:22;97763.97;;;7.84;79.72
21824;BME280;11074;48.596;9.238;2022-11-20T02:57:48;97763.91;;;7.79;79.57
21824;BME280;11074;48.596;9.238;2022-11-20T03:00:14;97752.94;;;7.75;78.44
21824;BME280;11074;48.596;9.238;2022-11-20T03:02:40;97756.41;;;7.76;78.70
21824;BME280;11074;48.596;9.238;2022-11-20T03:05:06;97756.72;;;7.79;80.03
21824;BME280;11074;48.596;9.238;2022-11-20T03:07:32;97751.88;;;7.76;79.90
21824;BME280;11074;48.596;9.238;2022-11-20T03:09:57;97751.50;;;7.51;80.36
21824;BME280;11074;48.596;9.238;2022-11-20T03:12:23;97762.47;;;7.55;80.83
21824;BME280;11074;48.596;9.238;2022-11-20T03:14:48;97762.59;;;7.48;81.86
21824;BME280;11074;48.596;9.238;2022-11-20T03:17:16;97756.19;;;7.61;82.29
21824;BME280;11074;48.596;9.238;2022-11-20T03:19:42;97758.25;;;7.59;81.19
21824;BME280;11074;48.596;9.238;2022-11-20T03:22:07;97756.25;;;7.66;80.51
21824;BME280;11074;48.596;9.238;2022-11-20T03:24:33;97757.63;;;7.68;80.30
21824;BME280;11074;48.596;9.238;2022-11-20T03:26:59;97752.94;;;7.75;79.90
21824;BME280;11074;48.596;9.238;2022-11-20T03:29:24;97755.03;;;7.73;80.37
21824;BME280;11074;48.596;9.238;2022-11-20T03:31:50;97749.38;;;7.70;79.58
21824;BME280;11074;48.596;9.238;2022-11-20T03:34:16;97746.25;;;7.73;80.25
21824;BME280;11074;48.596;9.238;2022-11-20T03:36:43;97751.06;;;7.76;81.01
21824;BME280;11074;48.596;9.238;2022-11-20T03:39:09;97748.41;;;7.76;80.77
21824;BME280;11074;48.596;9.238;2022-11-20T03:41:40;97759.94;;;7.81;80.93
21824;BME280;11074;48.596;9.238;2022-11-20T03:44:10;97754.63;;;7.81;80.83
21824;BME280;11074;48.596;9.238;2022-11-20T03:46:37;97757.44;;;7.75;80.80
21824;BME280;11074;48.596;9.238;2022-11-20T03:49:03;97760.69;;;7.77;81.89
21824;BME280;11074;48.596;9.238;2022-11-20T03:51:33;97756.41;;;7.76;81.36
21824;BME280;11074;48.596;9.238;2022-11-20T03:54:03;97762.53;;;7.76;82.02
21824;BME280;11074;48.596;9.238;2022-11-20T03:56:31;97759.59;;;7.78;80.91
21824;BME280;11074;48.596;9.238;2022-11-20T03:58:58;97757.84;;;7.67;82.72
21824;BME280;11074;48.596;9.238;2022-11-20T04:01:28;97763.50;;;7.70;82.01
21824;BME280;11074;48.596;9.238;2022-11-20T04:03:56;97756.56;;;7.69;82.95
21824;BME280;11074;48.596;9.238;2022-11-20T04:06:26;97755.03;;;7.73;82.44
21824;BME280;11074;48.596;9.238;2022-11-20T04:08:55;97753.41;;;7.72;82.50
21824;BME280;11074;48.596;9.238;2022-11-20T04:11:25;97759.13;;;7.64;81.88
21824;BME280;11074;48.596;9.238;2022-11-20T04:13:54;97766.31;;;7.64;82.17
21824;BME280;11074;48.596;9.238;2022-11-20T04:16:22;97757.28;;;7.65;82.29
21824;BME280;11074;48.596;9.238;2022-11-20T04:18:55;97754.69;;;7.70;82.68
21824;BME280;11074;48.596;9.238;2022-11-20T04:21:22;97751.00;;;7.71;83.44
21824;BME280;11074;48.596;9.238;2022-11-20T04:23:50;97748.81;;;7.68;83.25
21824;BME280;11074;48.596;9.238;2022-11-20T04:26:16;97750.59;;;7.79;83.68
21824;BME280;11074;48.596;9.238;2022-11-20T04:28:41;97751.47;;;7.84;84.30
21824;BME280;11074;48.596;9.238;2022-11-20T04:31:14;97747.44;;;7.82;83.19
21824;BME280;11074;48.596;9.238;2022-11-20T04:33:41;97738.66;;;7.81;83.20
21824;BME280;11074;48.596;9.238;2022-11-20T04:36:12;97738.91;;;7.63;84.44
21824;BME280;11074;48.596;9.238;2022-11-20T04:38:39;97739.22;;;7.67;84.83
21824;BME280;11074;48.596;9.238;2022-11-20T04:41:08;97739.06;;;7.73;84.75
21824;BME280;11074;48.596;9.238;2022-11-20T04:43:35;97740.75;;;7.79;85.51
21824;BME280;11074;48.596;9.238;2022-11-20T04:46:01;97737.34;;;7.84;84.59
21824;BME280;11074;48.596;9.238;2022-11-20T04:48:29;97734.13;;;7.82;84.49
21824;BME280;11074;48.596;9.238;2022-11-20T04:50:55;97733.56;;;7.80;84.50
21824;BME280;11074;48.596;9.238;2022-11-20T04:53:22;97738.59;;;7.76;84.81
21824;BME280;11074;48.596;9.238;2022-11-20T04:55:48;97733.81;;;7.78;85.72
21824;BME280;11074;48.596;9.238;2022-11-20T04:58:16;97732.38;;;7.71;85.13
21824;BME280;11074;48.596;9.238;2022-11-20T05:00:42;97727.88;;;7.71;85.28
21824;BME280;11074;48.596;9.238;2022-11-20T05:03:07;97731.91;;;7.74;86.06
21824;BME280;11074;48.596;9.238;2022-11-20T05:05:34;97730.53;;;7.71;85.17
21824;BME280;11074;48.596;9.238;2022-11-20T05:08:00;97726.00;;;7.72;84.87
21824;BME280;11074;48.596;9.238;2022-11-20T05:10:26;97736.16;;;7.75;85.66
21824;BME280;11074;48.596;9.238;2022-11-20T05:12:53;97738.81;;;7.75;86.04
21824;BME280;11074;48.596;9.238;2022-11-20T05:15:18;97732.59;;;7.69;85.49
21824;BME280;11074;48.596;9.238;2022-11-20T05:17:49;97729.31;;;7.79;85.62
21824;BME280;11074;48.596;9.238;2022-11-20T05:20:16;97732.84;;;7.84;85.98
21824;BME280;11074;48.596;9.238;2022-11-20T05:22:42;97739.34;;;7.93;85.50
21824;BME280;11074;48.596;9.238;2022-11-20T05:25:08;97731.13;;;7.95;85.16
21824;BME280;11074;48.596;9.238;2022-11-20T05:27:34;97741.50;;;7.97;84.39
21824;BME280;11074;48.596;9.238;2022-11-20T05:30:00;97736.50;;;8.00;84.84
21824;BME280;11074;48.596;9.238;2022-11-20T05:32:25;97738.63;;;7.98;84.35
21824;BME280;11074;48.596;9.238;2022-11-20T05:34:52;97736.03;;;8.03;84.71
21824;BME280;11074;48.596;9.238;2022-11-20T05:37:17;97738.69;;;8.03;83.37
21824;BME280;11074;48.596;9.238;2022-11-20T05:39:43;97734.97;;;8.04;83.55
21824;BME280;11074;48.596;9.238;2022-11-20T05:42:09;97733.09;;;8.05;83.25
21824;BME280;11074;48.596;9.238;2022-11-20T05:44:53;97734.97;;;8.04;83.27
21824;BME280;11074;48.596;9.238;2022-11-20T05:47:19;97728.03;;;8.03;82.66
21824;BME280;11074;48.596;9.238;2022-11-20T05:49:44;97718.69;;;8.01;82.97
21824;BME280;11074;48.596;9.238;2022-11-20T05:52:10;97720.88;;;8.04;83.50
21824;BME280;11074;48.596;9.238;2022-11-20T05:54:36;97725.16;;;7.88;83.47
21824;BME280;11074;48.596;9.238;2022-11-20T05:57:01;97716.69;;;7.91;84.45
21824;BME280;11074;48.596;9.238;2022-11-20T05:59:27;97719.13;;;7.92;83.88
21824;BME280;11074;48.596;9.238;2022-11-20T06:01:53;97714.66;;;7.98;84.10
21824;BME280;11074;48.596;9.238;2022-11-20T06:04:18;97721.47;;;7.89;83.42
21824;BME280;11074;48.596;9.238;2022-11-20T06:06:44;97714.56;;;7.93;83.50
21824;BME280;11074;48.596;9.238;2022-11-20T06:09:10;97724.72;;;7.96;83.63
21824;BME280;11074;48.596;9.238;2022-11-20T06:11:35;97723.44;;;7.99;82.97
21824;BME280;11074;48.596;9.238;2022-11-20T06:14:01;97718.69;;;8.01;84.32
21824;BME280;11074;48.596;9.238;2022-11-20T06:16:27;97720.78;;;7.99;83.69
21824;BME280;11074;48.596;9.238;2022-11-20T06:18:52;97714.41;;;8.00;83.57
21824;BME280;11074;48.596;9.238;2022-11-20T06:21:21;97707.72;;;7.97;83.35
21824;BME280;11074;48.596;9.238;2022-11-20T06:23:48;97718.06;;;7.93;83.50
21824;BME280;11074;48.596;9.238;2022-11-20T06:26:24;97720.53;;;8.00;83.35
21824;BME280;11074;48.596;9.238;2022-11-20T06:28:51;97718.69;;;8.01;83.32
21824;BME280;11074;48.596;9.238;2022-11-20T06:31:21;97717.63;;;8.02;83.65
21824;BME280;11074;48.596;9.238;2022-11-20T06:33:48;97726.41;;;8.02;83.08
21824;BME280;11074;48.596;9.238;2022-11-20T06:36:17;97725.94;;;8.05;82.43
21824;BME280;11074;48.596;9.238;2022-11-20T06:38:44;97724.91;;;8.06;82.47
21824;BME280;11074;48.596;9.238;2022-11-20T06:41:19;97726.97;;;8.04;83.84
21824;BME280;11074;48.596;9.238;2022-11-20T06:43:46;97733.09;;;8.05;82.41
21824;BME280;11074;48.596;9.238;2022-11-20T06:46:14;97735.34;;;8.13;83.08
21824;BME280;11074;48.596;9.238;2022-11-20T06:48:40;97735.34;;;8.13;82.72
21824;BME280;11074;48.596;9.238;2022-11-20T06:51:07;97736.97;;;8.14;82.96
21824;BME280;11074;48.596;9.238;2022-11-20T06:53:34;97733.72;;;8.12;82.00
21824;BME280;11074;48.596;9.238;2022-11-20T06:56:00;97736.16;;;8.13;82.40
21824;BME280;11074;48.596;9.238;2022-11-20T06:58:28;97739.03;;;8.12;82.11
21824;BME280;11074;48.596;9.238;2022-11-20T07:01:01;97741.00;;;8.16;82.36
21824;BME280;11074;48.596;9.238;2022-11-20T07:03:27;97742.94;;;8.04;81.57
21824;BME280;11074;48.596;9.238;2022-11-20T07:05:57;97736.84;;;8.04;81.93
21824;BME280;11074;48.596;9.238;2022-11-20T07:08:26;97741.47;;;8.13;80.98
21824;BME280;11074;48.596;9.238;2022-11-20T07:10:51;97744.69;;;8.15;80.75
21824;BME280;11074;48.596;9.238;2022-11-20T07:13:17;97750.41;;;8.24;81.63
21824;BME280;11074;48.596;9.238;2022-11-20T07:15:43;97747.75;;;8.24;81.01
21824;BME280;11074;48.596;9.238;2022-11-20T07:18:09;97756.63;;;8.29;80.84
21824;BME280;11074;48.596;9.238;2022-11-20T07:20:34;97756.38;;;8.31;82.28
21824;BME280;11074;48.596;9.238;2022-11-20T07:23:00;97758.47;;;8.29;81.13
21824;BME280;11074;48.596;9.238;2022-11-20T07:25:27;97760.41;;;8.33;82.33
21824;BME280;11074;48.596;9.238;2022-11-20T07:27:58;97759.84;;;8.31;81.99
21824;BME280;11074;48.596;9.238;2022-11-20T07:30:24;97754.03;;;8.34;81.96
21824;BME280;11074;48.596;9.238;2022-11-20T07:32:55;97760.97;;;8.35;81.18
21824;BME280;11074;48.596;9.238;2022-11-20T07:35:22;97754.56;;;8.36;81.55
21824;BME280;11074;48.596;9.238;2022-11-20T07:37:48;97763.81;;;8.29;81.41
21824;BME280;11074;48.596;9.238;2022-11-20T07:40:15;97763.25;;;8.27;81.12
21824;BME280;11074;48.596;9.238;2022-11-20T07:42:53;97757.44;;;8.30;82.19
21824;BME280;11074;48.596;9.238;2022-11-20T07:45:21;97754.03;;;8.34;81.94
21824;BME280;11074;48.596;9.238;2022-11-20T07:47:48;97757.25;;;8.36;81.26
21824;BME280;11074;48.596;9.238;2022-11-20T07:50:15;97757.78;;;8.38;81.55
21824;BME280;11074;48.596;9.238;2022-11-20T07:52:40;97754.03;;;8.34;80.89
21824;BME280;11074;48.596;9.238;2022-11-20T07:55:07;97749.75;;;8.33;80.38
21824;BME280;11074;48.596;9.238;2022-11-20T07:57:33;97771.69;;;8.40;81.23
21824;BME280;11074;48.596;9.238;2022-11-20T07:59:59;97752.97;;;8.35;80.45
21824;BME280;11074;48.596;9.238;2022-11-20T08:02:25;97761.31;;;8.44;81.15
21824;BME280;11074;48.596;9.238;2022-11-20T08:04:50;97769.19;;;8.34;80.66
21824;BME280;11074;48.596;9.238;2022-11-20T08:07:16;97755.13;;;8.38;81.23
21824;BME280;11074;48.596;9.238;2022-11-20T08:09:42;97753.59;;;8.42;81.20
21824;BME280;11074;48.596;9.238;2022-11-20T08:12:09;97765.13;;;8.48;80.85
21824;BME280;11074;48.596;9.238;2022-11-20T08:15:01;97754.53;;;8.53;80.04
21824;BME280;11074;48.596;9.238;2022-11-20T08:17:26;97766.00;;;8.53;79.71
21824;BME280;11074;48.596;9.238;2022-11-20T08:19:52;97760.53;;;8.43;80.65
21824;BME280;11074;48.596;9.238;2022-11-20T08:22:18;97770.75;;;8.51;80.51
21824;BME280;11074;48.596;9.238;2022-11-20T08:24:44;97772.69;;;8.56;80.23
21824;BME280;11074;48.596;9.238;2022-11-20T08:27:09;97771.88;;;8.56;79.88
21824;BME280;11074;48.596;9.238;2022-11-20T08:29:35;97776.31;;;8.50;79.43
21824;BME280;11074;48.596;9.238;2022-11-20T08:32:00;97791.81;;;8.53;80.19
21824;BME280;11074;48.596;9.238;2022-11-20T08:34:26;97784.38;;;8.55;80.08
21824;BME280;11074;48.596;9.238;2022-11-20T08:36:52;97784.44;;;8.60;80.54
21824;BME280;11074;48.596;9.238;2022-11-20T08:39:17;97787.09;;;8.60;80.01
21824;BME280;11074;48.596;9.238;2022-11-20T08:41:43;97782.94;;;8.69;80.08
21824;BME280;11074;48.596;9.238;2022-11-20T08:44:09;97791.81;;;8.75;80.43
21824;BME280;11074;48.596;9.238;2022-11-20T08:46:40;97791.50;;;8.71;79.43
21824;BME280;11074;48.596;9.238;2022-11-20T08:49:09;97789.97;;;8.75;80.23
21824;BME280;11074;48.596;9.238;2022-11-20T08:51:36;97804.00;;;8.71;80.21
21824;BME280;11074;48.596;9.238;2022-11-20T08:54:03;97803.50;;;8.74;79.87
21824;BME280;11074;48.596;9.238;2022-11-20T08:56:30;97794.41;;;8.70;80.08
21824;BME280;11074;48.596;9.238;2022-11-20T08:58:56;97803.22;;;8.70;79.82
21824;BME280;11074;48.596;9.238;2022-11-20T09:01:23;97798.25;;;8.79;80.15
21824;BME280;11074;48.596;9.238;2022-11-20T09:03:49;97790.50;;;8.77;79.74
21824;BME280;11074;48.596;9.238;2022-11-20T09:06:15;97799.81;;;8.75;79.92
21824;BME280;11074;48.596;9.238;2022-11-20T09:08:41;97804.94;;;8.81;80.45
21824;BME280;11074;48.596;9.238;2022-11-20T09:11:07;97804.88;;;8.76;80.53
21824;BME280;11074;48.596;9.238;2022-11-20T09:13:35;97804.19;;;8.86;80.19
21824;BME280;11074;48.596;9.238;2022-11-20T09:16:08;97793.13;;;8.72;80.14
21824;BME280;11074;48.596;9.238;2022-11-20T09:18:35;97803.63;;;8.84;80.66
21824;BME280;11074;48.596;9.238;2022-11-20T09:21:11;97795.75;;;8.94;80.66
21824;BME280;11074;48.596;9.238;2022-11-20T09:23:38;97798.97;;;8.96;80.54
21824;BME280;11074;48.596;9.238;2022-11-20T09:59:49;97831.94;;;9.11;80.36
21824;BME280;11074;48.596;9.238;2022-11-20T10:02:36;97830.56;;;9.09;81.49
21824;BME280;11074;48.596;9.238;2022-11-20T10:05:11;97826.91;;;9.15;81.33
21824;BME280;11074;48.596;9.238;2022-11-20T10:07:50;97819.69;;;9.15;80.92
21824;BME280;11074;48.596;9.238;2022-11-20T10:10:40;97820.91;;;9.30;81.71
21824;BME280;11074;48.596;9.238;2022-11-20T10:25:15;97825.75;;;9.33;81.14
21824;BME280;11074;48.596;9.238;2022-11-20T10:31:10;97815.88;;;9.33;81.02
21824;BME280;11074;48.596;9.238;2022-11-20T10:33:41;97822.28;;;9.32;81.70
21824;BME280;11074;48.596;9.238;2022-11-20T10:38:56;97817.28;;;9.41;82.72
21824;BME280;11074;48.596;9.238;2022-11-20T10:41:33;97828.09;;;9.29;83.88
21824;BME280;11074;48.596;9.238;2022-11-20T10:44:11;97822.03;;;9.34;83.38
21824;BME280;11074;48.596;9.238;2022-11-20T10:46:44;97814.88;;;9.39;83.95
21824;BME280;11074;48.596;9.238;2022-11-20T10:49:19;97813.84;;;9.45;83.39
21824;BME280;11074;48.596;9.238;2022-11-20T11:00:26;97804.50;;;9.43;82.07
21824;BME280;11074;48.596;9.238;2022-11-20T11:02:54;97807.25;;;9.53;82.82
21824;BME280;11074;48.596;9.238;2022-11-20T11:05:50;97804.88;;;9.56;83.33
21824;BME280;11074;48.596;9.238;2022-11-20T11:08:19;97805.69;;;9.57;82.73
21824;BME280;11074;48.596;9.238;2022-11-20T11:11:03;97795.91;;;9.67;82.85
21824;BME280;11074;48.596;9.238;2022-11-20T11:13:32;97792.13;;;9.63;82.12
21824;BME280;11074;48.596;9.238;2022-11-20T11:15:58;97795.38;;;9.65;82.33
21824;BME280;11074;48.596;9.238;2022-11-20T11:18:32;97789.56;;;9.73;81.72
21824;BME280;11074;48.596;9.238;2022-11-20T11:21:01;97788.78;;;9.78;81.97
21824;BME280;11074;48.596;9.238;2022-11-20T11:23:42;97777.13;;;9.89;80.51
21824;BME280;11074;48.596;9.238;2022-11-20T11:26:23;97768.31;;;9.94;81.14
21824;BME280;11074;48.596;9.238;2022-11-20T11:29:00;97767.53;;;9.93;81.52
21824;BME280;11074;48.596;9.238;2022-11-20T11:31:34;97766.00;;;10.02;80.43
21824;BME280;11074;48.596;9.238;2022-11-20T11:34:11;97760.97;;;10.11;80.01
21824;BME280;11074;48.596;9.238;2022-11-20T11:36:38;97766.38;;;10.16;79.98
21824;BME280;11074;48.596;9.238;2022-11-20T11:39:08;97765.56;;;10.15;79.43
21824;BME280;11074;48.596;9.238;2022-11-20T11:41:36;97762.03;;;10.10;80.23
21824;BME280;11074;48.596;9.238;2022-11-20T11:44:18;97754.16;;;9.93;81.43
21824;BME280;11074;48.596;9.238;2022-11-20T11:47:05;97755.50;;;9.96;82.06
21824;BME280;11074;48.596;9.238;2022-11-20T11:49:35;97745.81;;;10.16;81.18
21824;BME280;11074;48.596;9.238;2022-11-20T11:52:16;97736.22;;;10.25;80.57
21824;BME280;11074;48.596;9.238;2022-11-20T11:55:02;97744.00;;;10.32;80.75
21824;BME280;11074;48.596;9.238;2022-11-20T11:58:08;97738.88;;;10.20;80.67
21824;BME280;11074;48.596;9.238;2022-11-20T12:00:39;97722.53;;;10.17;80.67
21824;BME280;11074;48.596;9.238;2022-11-20T12:03:35;97723.81;;;10.09;80.44
21824;BME280;11074;48.596;9.238;2022-11-20T12:06:16;97722.00;;;10.15;78.70
21824;BME280;11074;48.596;9.238;2022-11-20T12:09:02;97714.34;;;10.28;78.05
21824;BME280;11074;48.596;9.238;2022-11-20T12:11:55;97709.34;;;10.52;77.25
21824;BME280;11074;48.596;9.238;2022-11-20T12:14:34;97715.31;;;10.79;75.71
21824;BME280;11074;48.596;9.238;2022-11-20T12:17:02;97703.56;;;11.06;75.04
21824;BME280;11074;48.596;9.238;2022-11-20T12:19:31;97703.56;;;11.16;73.60
21824;BME280;11074;48.596;9.238;2022-11-20T12:22:19;97711.59;;;11.26;71.70
21824;BME280;11074;48.596;9.238;2022-11-20T12:28:10;97707.00;;;10.76;71.83
21824;BME280;11074;48.596;9.238;2022-11-20T12:34:15;97708.50;;;10.37;71.27
21824;BME280;11074;48.596;9.238;2022-11-20T12:46:06;97710.38;;;10.41;72.43
21824;BME280;11074;48.596;9.238;2022-11-20T12:51:45;97704.94;;;10.21;73.72
21824;BME280;11074;48.596;9.238;2022-11-20T13:00:21;97713.28;;;10.29;73.69
21824;BME280;11074;48.596;9.238;2022-11-20T13:08:29;97714.09;;;10.35;72.67
21824;BME280;11074;48.596;9.238;2022-11-20T13:16:58;97708.41;;;11.49;68.92
21824;BME280;11074;48.596;9.238;2022-11-20T13:19:26;97703.06;;;11.49;67.59
21824;BME280;11074;48.596;9.238;2022-11-20T13:21:54;97712.16;;;11.43;66.82
21824;BME280;11074;48.596;9.238;2022-11-20T13:26:46;97718.03;;;11.10;67.21
21824;BME280;11074;48.596;9.238;2022-11-20T13:29:19;97710.25;;;10.98;67.76
21824;BME280;11074;48.596;9.238;2022-11-20T13:31:47;97716.94;;;10.85;68.79
21824;BME280;11074;48.596;9.238;2022-11-20T13:34:27;97711.00;;;10.78;68.08
21824;BME280;11074;48.596;9.238;2022-11-20T13:36:57;97705.41;;;10.80;68.75
21824;BME280;11074;48.596;9.238;2022-11-20T13:39:35;97709.66;;;10.81;68.50
21824;BME280;11074;48.596;9.238;2022-11-20T13:44:52;97702.16;;;10.63;69.10
21824;BME280;11074;48.596;9.238;2022-11-20T13:47:27;97699.19;;;10.59;68.34
21824;BME280;11074;48.596;9.238;2022-11-20T13:49:57;97685.06;;;10.59;69.08
21824;BME280;11074;48.596;9.238;2022-11-20T13:55:42;97686.38;;;10.56;68.98
21824;BME280;11074;48.596;9.238;2022-11-20T13:58:44;97663.97;;;10.82;68.17
21824;BME280;11074;48.596;9.238;2022-11-20T14:01:20;97660.47;;;11.47;64.83
21824;BME280;11074;48.596;9.238;2022-11-20T14:03:47;97659.59;;;11.97;63.81
21824;BME280;11074;48.596;9.238;2022-11-20T14:06:34;97658.25;;;12.00;62.93
21824;BME280;11074;48.596;9.238;2022-11-20T14:09:03;97659.94;;;11.76;63.15
21824;BME280;11074;48.596;9.238;2022-11-20T14:11:31;97653.00;;;11.54;63.04
21824;BME280;11074;48.596;9.238;2022-11-20T14:14:18;97653.28;;;11.33;63.86
21824;BME280;11074;48.596;9.238;2022-11-20T14:16:45;97664.53;;;11.20;65.55
21824;BME280;11074;48.596;9.238;2022-11-20T14:21:53;97672.25;;;10.86;65.99
21824;BME280;11074;48.596;9.238;2022-11-20T14:24:21;97663.69;;;10.69;66.97
21824;BME280;11074;48.596;9.238;2022-11-20T14:26:49;97665.00;;;10.66;66.78
21824;BME280;11074;48.596;9.238;2022-11-20T14:29:29;97665.25;;;10.55;68.28
21824;BME280;11074;48.596;9.238;2022-11-20T14:31:57;97656.69;;;10.53;69.40
21824;BME280;11074;48.596;9.238;2022-11-20T14:34:32;97666.88;;;10.56;67.94
21824;BME280;11074;48.596;9.238;2022-11-20T14:37:05;97664.44;;;10.54;69.18
21824;BME280;11074;48.596;9.238;2022-11-20T14:39:40;97661.50;;;10.51;67.94
21824;BME280;11074;48.596;9.238;2022-11-20T14:42:27;97664.69;;;10.43;68.84
21824;BME280;11074;48.596;9.238;2022-11-20T14:44:57;97656.13;;;10.41;69.09
21824;BME280;11074;48.596;9.238;2022-11-20T14:47:30;97658.53;;;10.42;70.50
21824;BME280;11074;48.596;9.238;2022-11-20T14:49:58;97651.56;;;10.36;70.35
21824;BME280;11074;48.596;9.238;2022-11-20T14:52:30;97649.44;;;10.38;70.03
21824;BME280;11074;48.596;9.238;2022-11-20T14:54:58;97632.84;;;10.31;69.80
21824;BME280;11074;48.596;9.238;2022-11-20T14:57:27;97645.97;;;10.38;71.44
21824;BME280;11074;48.596;9.238;2022-11-20T15:02:52;97631.81;;;10.32;71.07
21824;BME280;11074;48.596;9.238;2022-11-20T15:05:44;97632.31;;;10.29;71.12
21824;BME280;11074;48.596;9.238;2022-11-20T15:08:11;97625.13;;;10.29;71.41
21824;BME280;11074;48.596;9.238;2022-11-20T15:10:37;97622.97;;;10.26;71.64
21824;BME280;11074;48.596;9.238;2022-11-20T15:13:12;97617.34;;;10.23;72.49
21824;BME280;11074;48.596;9.238;2022-11-20T15:15:54;97618.41;;;10.22;72.91